sensor_id;sensor_type;location;lat;lon;timestamp;pressure;altitude;pressure_sealevel;temperature
79228;BMP280;75303;53.496;10.214;2024-03-08T00:00:02;101661.31;;;1.69
79228;BMP280;75303;53.496;10.214;2024-03-08T00:02:38;101655.56;;;1.67
79228;BMP280;75303;53.496;10.214;2024-03-08T00:05:05;101647.94;;;1.66
79228;BMP280;75303;53.496;10.214;2024-03-08T00:07:30;101647.75;;;1.67
79228;BMP280;75303;53.496;10.214;2024-03-08T00:09:56;101650.38;;;1.67
79228;BMP280;75303;53.496;10.214;2024-03-08T00:12:21;101643.97;;;1.63
79228;BMP280;75303;53.496;10.214;2024-03-08T00:14:46;101645.78;;;1.63
79228;BMP280;75303;53.496;10.214;2024-03-08T00:17:11;101644.78;;;1.64
79228;BMP280;75303;53.496;10.214;2024-03-08T00:19:37;101638.03;;;1.56
79228;BMP280;75303;53.496;10.214;2024-03-08T00:22:02;101630.25;;;1.56
79228;BMP280;75303;53.496;10.214;2024-03-08T00:24:27;101639.63;;;1.57
79228;BMP280;75303;53.496;10.214;2024-03-08T00:26:54;101640.59;;;1.63
79228;BMP280;75303;53.496;10.214;2024-03-08T00:29:19;101644.31;;;1.49
79228;BMP280;75303;53.496;10.214;2024-03-08T00:31:44;101636.44;;;1.55
79228;BMP280;75303;53.496;10.214;2024-03-08T00:34:10;101636.31;;;1.51
79228;BMP280;75303;53.496;10.214;2024-03-08T00:36:37;101642.88;;;1.53
79228;BMP280;75303;53.496;10.214;2024-03-08T00:39:02;101634.94;;;1.48
79228;BMP280;75303;53.496;10.214;2024-03-08T00:41:31;101640.31;;;1.47
79228;BMP280;75303;53.496;10.214;2024-03-08T00:43:56;101638.53;;;1.47
79228;BMP280;75303;53.496;10.214;2024-03-08T00:46:21;101645.09;;;1.50
79228;BMP280;75303;53.496;10.214;2024-03-08T00:48:47;101639.91;;;1.50
79228;BMP280;75303;53.496;10.214;2024-03-08T00:51:12;101636.34;;;1.44
79228;BMP280;75303;53.496;10.214;2024-03-08T00:53:37;101640.75;;;1.44
79228;BMP280;75303;53.496;10.214;2024-03-08T00:56:03;101630.19;;;1.39
79228;BMP280;75303;53.496;10.214;2024-03-08T00:58:29;101629.63;;;1.37
79228;BMP280;75303;53.496;10.214;2024-03-08T01:00:55;101629.63;;;1.37
79228;BMP280;75303;53.496;10.214;2024-03-08T01:03:22;101626.44;;;1.35
79228;BMP280;75303;53.496;10.214;2024-03-08T01:05:47;101632.09;;;1.25
79228;BMP280;75303;53.496;10.214;2024-03-08T01:08:12;101634.88;;;1.24
79228;BMP280;75303;53.496;10.214;2024-03-08T01:10:38;101613.53;;;1.22
79228;BMP280;75303;53.496;10.214;2024-03-08T01:13:03;101622.72;;;1.24
79228;BMP280;75303;53.496;10.214;2024-03-08T01:15:28;101613.69;;;1.27
79228;BMP280;75303;53.496;10.214;2024-03-08T01:17:54;101609.34;;;1.21
79228;BMP280;75303;53.496;10.214;2024-03-08T01:20:19;101604.75;;;1.23
79228;BMP280;75303;53.496;10.214;2024-03-08T01:22:44;101601.13;;;1.24
79228;BMP280;75303;53.496;10.214;2024-03-08T01:25:09;101597.75;;;1.23
79228;BMP280;75303;53.496;10.214;2024-03-08T01:27:34;101597.75;;;1.23
79228;BMP280;75303;53.496;10.214;2024-03-08T01:30:02;101587.41;;;1.17
79228;BMP280;75303;53.496;10.214;2024-03-08T01:32:27;101584.00;;;1.16
79228;BMP280;75303;53.496;10.214;2024-03-08T01:34:52;101582.63;;;1.14
79228;BMP280;75303;53.496;10.214;2024-03-08T01:37:18;101580.81;;;1.14
79228;BMP280;75303;53.496;10.214;2024-03-08T01:39:43;101576.69;;;1.07
79228;BMP280;75303;53.496;10.214;2024-03-08T01:42:08;101574.66;;;1.09
79228;BMP280;75303;53.496;10.214;2024-03-08T01:44:34;101568.84;;;1.13
79228;BMP280;75303;53.496;10.214;2024-03-08T01:46:59;101561.66;;;1.15
79228;BMP280;75303;53.496;10.214;2024-03-08T01:49:26;101560.69;;;1.10
79228;BMP280;75303;53.496;10.214;2024-03-08T01:51:51;101557.47;;;1.14
79228;BMP280;75303;53.496;10.214;2024-03-08T01:54:18;101568.53;;;1.03
79228;BMP280;75303;53.496;10.214;2024-03-08T01:56:44;101551.78;;;0.99
79228;BMP280;75303;53.496;10.214;2024-03-08T01:59:10;101555.75;;;1.02
79228;BMP280;75303;53.496;10.214;2024-03-08T02:01:35;101552.38;;;1.01
79228;BMP280;75303;53.496;10.214;2024-03-08T02:04:00;101549.25;;;0.93
79228;BMP280;75303;53.496;10.214;2024-03-08T02:06:26;101545.63;;;0.94
79228;BMP280;75303;53.496;10.214;2024-03-08T02:08:51;101545.06;;;0.92
79228;BMP280;75303;53.496;10.214;2024-03-08T02:11:17;101548.44;;;0.92
79228;BMP280;75303;53.496;10.214;2024-03-08T02:13:42;101547.66;;;0.92
79228;BMP280;75303;53.496;10.214;2024-03-08T02:16:08;101537.09;;;0.87
79228;BMP280;75303;53.496;10.214;2024-03-08T02:18:33;101536.16;;;0.81
79228;BMP280;75303;53.496;10.214;2024-03-08T02:21:00;101532.94;;;0.86
79228;BMP280;75303;53.496;10.214;2024-03-08T02:23:26;101537.31;;;0.85
79228;BMP280;75303;53.496;10.214;2024-03-08T02:25:52;101535.34;;;0.81
79228;BMP280;75303;53.496;10.214;2024-03-08T02:28:19;101542.13;;;0.82
79228;BMP280;75303;53.496;10.214;2024-03-08T02:30:45;101542.75;;;0.77
79228;BMP280;75303;53.496;10.214;2024-03-08T02:33:13;101537.34;;;0.79
79228;BMP280;75303;53.496;10.214;2024-03-08T02:35:38;101534.59;;;0.74
79228;BMP280;75303;53.496;10.214;2024-03-08T02:38:04;101533.00;;;0.73
79228;BMP280;75303;53.496;10.214;2024-03-08T02:40:29;101542.81;;;0.71
79228;BMP280;75303;53.496;10.214;2024-03-08T02:42:55;101530.59;;;0.78
79228;BMP280;75303;53.496;10.214;2024-03-08T02:45:20;101530.22;;;0.75
79228;BMP280;75303;53.496;10.214;2024-03-08T02:47:46;101534.59;;;0.74
79228;BMP280;75303;53.496;10.214;2024-03-08T02:50:11;101518.28;;;0.67
79228;BMP280;75303;53.496;10.214;2024-03-08T02:52:37;101530.66;;;0.65
79228;BMP280;75303;53.496;10.214;2024-03-08T02:55:02;101524.47;;;0.66
79228;BMP280;75303;53.496;10.214;2024-03-08T02:57:27;101524.84;;;0.70
79228;BMP280;75303;53.496;10.214;2024-03-08T02:59:56;101515.09;;;0.65
79228;BMP280;75303;53.496;10.214;2024-03-08T03:02:21;101523.31;;;0.62
79228;BMP280;75303;53.496;10.214;2024-03-08T03:04:48;101518.13;;;0.62
79228;BMP280;75303;53.496;10.214;2024-03-08T03:07:13;101519.72;;;0.63
79228;BMP280;75303;53.496;10.214;2024-03-08T03:09:38;101516.16;;;0.51
79228;BMP280;75303;53.496;10.214;2024-03-08T03:12:04;101515.16;;;0.52
79228;BMP280;75303;53.496;10.214;2024-03-08T03:14:29;101521.56;;;0.50
79228;BMP280;75303;53.496;10.214;2024-03-08T03:16:54;101519.19;;;0.48
79228;BMP280;75303;53.496;10.214;2024-03-08T03:19:20;101513.56;;;0.51
79228;BMP280;75303;53.496;10.214;2024-03-08T03:21:45;101515.78;;;0.48
79228;BMP280;75303;53.496;10.214;2024-03-08T03:24:11;101511.41;;;0.48
79228;BMP280;75303;53.496;10.214;2024-03-08T03:26:37;101515.63;;;0.43
79228;BMP280;75303;53.496;10.214;2024-03-08T03:29:05;101512.03;;;0.44
79228;BMP280;75303;53.496;10.214;2024-03-08T03:31:31;101509.63;;;0.42
79228;BMP280;75303;53.496;10.214;2024-03-08T03:33:56;101512.59;;;0.46
79228;BMP280;75303;53.496;10.214;2024-03-08T03:36:26;101511.66;;;0.40
79228;BMP280;75303;53.496;10.214;2024-03-08T03:38:53;101511.59;;;0.47
79228;BMP280;75303;53.496;10.214;2024-03-08T03:41:29;101510.38;;;0.49
79228;BMP280;75303;53.496;10.214;2024-03-08T03:43:54;101504.28;;;0.37
79228;BMP280;75303;53.496;10.214;2024-03-08T03:46:19;101506.66;;;0.39
79228;BMP280;75303;53.496;10.214;2024-03-08T03:48:45;101510.47;;;0.36
79228;BMP280;75303;53.496;10.214;2024-03-08T03:51:10;101511.69;;;0.34
79228;BMP280;75303;53.496;10.214;2024-03-08T03:53:35;101507.03;;;0.42
79228;BMP280;75303;53.496;10.214;2024-03-08T03:56:00;101506.84;;;0.44
79228;BMP280;75303;53.496;10.214;2024-03-08T03:58:26;101501.66;;;0.44
79228;BMP280;75303;53.496;10.214;2024-03-08T04:00:52;101504.88;;;0.39
79228;BMP280;75303;53.496;10.214;2024-03-08T04:03:17;101510.06;;;0.39
79228;BMP280;75303;53.496;10.214;2024-03-08T04:05:42;101506.88;;;0.37
79228;BMP280;75303;53.496;10.214;2024-03-08T04:08:08;101510.47;;;0.36
79228;BMP280;75303;53.496;10.214;2024-03-08T04:10:33;101515.06;;;0.34
79228;BMP280;75303;53.496;10.214;2024-03-08T04:12:58;101505.72;;;0.33
79228;BMP280;75303;53.496;10.214;2024-03-08T04:15:23;101502.16;;;0.28
79228;BMP280;75303;53.496;10.214;2024-03-08T04:17:48;101510.91;;;0.33
79228;BMP280;75303;53.496;10.214;2024-03-08T04:20:14;101501.16;;;0.29
79228;BMP280;75303;53.496;10.214;2024-03-08T04:22:39;101495.75;;;0.30
79228;BMP280;75303;53.496;10.214;2024-03-08T04:25:06;101500.56;;;0.27
79228;BMP280;75303;53.496;10.214;2024-03-08T04:27:35;101503.97;;;0.21
79228;BMP280;75303;53.496;10.214;2024-03-08T04:30:01;101496.59;;;0.24
79228;BMP280;75303;53.496;10.214;2024-03-08T04:32:26;101493.78;;;0.19
79228;BMP280;75303;53.496;10.214;2024-03-08T04:34:53;101498.97;;;0.19
79228;BMP280;75303;53.496;10.214;2024-03-08T04:37:18;101494.00;;;0.24
79228;BMP280;75303;53.496;10.214;2024-03-08T04:39:47;101496.97;;;0.21
79228;BMP280;75303;53.496;10.214;2024-03-08T04:42:12;101495.78;;;0.24
79228;BMP280;75303;53.496;10.214;2024-03-08T04:44:38;101490.03;;;0.15
79228;BMP280;75303;53.496;10.214;2024-03-08T04:47:04;101492.22;;;0.18
79228;BMP280;75303;53.496;10.214;2024-03-08T04:49:31;101485.03;;;0.20
79228;BMP280;75303;53.496;10.214;2024-03-08T04:51:56;101487.59;;;0.20
79228;BMP280;75303;53.496;10.214;2024-03-08T04:54:21;101486.25;;;0.11
79228;BMP280;75303;53.496;10.214;2024-03-08T04:56:47;101475.31;;;0.09
79228;BMP280;75303;53.496;10.214;2024-03-08T04:59:12;101479.28;;;0.12
79228;BMP280;75303;53.496;10.214;2024-03-08T05:01:38;101480.25;;;0.17
79228;BMP280;75303;53.496;10.214;2024-03-08T05:04:04;101472.88;;;0.14
79228;BMP280;75303;53.496;10.214;2024-03-08T05:06:29;101473.47;;;0.16
79228;BMP280;75303;53.496;10.214;2024-03-08T05:08:55;101475.88;;;0.11
79228;BMP280;75303;53.496;10.214;2024-03-08T05:11:20;101478.47;;;0.11
79228;BMP280;75303;53.496;10.214;2024-03-08T05:13:46;101479.50;;;0.10
79228;BMP280;75303;53.496;10.214;2024-03-08T05:16:11;101473.50;;;0.10
79228;BMP280;75303;53.496;10.214;2024-03-08T05:18:36;101470.31;;;0.08
79228;BMP280;75303;53.496;10.214;2024-03-08T05:21:02;101472.13;;;0.07
79228;BMP280;75303;53.496;10.214;2024-03-08T05:23:29;101473.75;;;0.02
79228;BMP280;75303;53.496;10.214;2024-03-08T05:25:54;101465.19;;;0.01
79228;BMP280;75303;53.496;10.214;2024-03-08T05:28:20;101466.97;;;0.01
79228;BMP280;75303;53.496;10.214;2024-03-08T05:30:45;101463.44;;;-0.04
79228;BMP280;75303;53.496;10.214;2024-03-08T05:33:11;101459.25;;;-0.05
79228;BMP280;75303;53.496;10.214;2024-03-08T05:35:39;101466.00;;;-0.04
79228;BMP280;75303;53.496;10.214;2024-03-08T05:38:05;101455.44;;;-0.09
79228;BMP280;75303;53.496;10.214;2024-03-08T05:40:30;101462.00;;;-0.07
79228;BMP280;75303;53.496;10.214;2024-03-08T05:42:57;101459.63;;;-0.08
79228;BMP280;75303;53.496;10.214;2024-03-08T05:45:23;101466.63;;;-0.09
79228;BMP280;75303;53.496;10.214;2024-03-08T05:47:50;101457.22;;;-0.03
79228;BMP280;75303;53.496;10.214;2024-03-08T05:50:17;101454.84;;;-0.05
79228;BMP280;75303;53.496;10.214;2024-03-08T05:52:42;101461.00;;;0.00
79228;BMP280;75303;53.496;10.214;2024-03-08T05:55:08;101463.22;;;-0.03
79228;BMP280;75303;53.496;10.214;2024-03-08T05:57:35;101459.63;;;-0.02
79228;BMP280;75303;53.496;10.214;2024-03-08T06:00:03;101467.34;;;0.04
79228;BMP280;75303;53.496;10.214;2024-03-08T06:02:28;101464.59;;;-0.01
79228;BMP280;75303;53.496;10.214;2024-03-08T06:04:54;101464.38;;;0.01
79228;BMP280;75303;53.496;10.214;2024-03-08T06:07:19;101467.34;;;0.04
79228;BMP280;75303;53.496;10.214;2024-03-08T06:09:45;101475.72;;;0.06
79228;BMP280;75303;53.496;10.214;2024-03-08T06:12:11;101460.78;;;0.02
79228;BMP280;75303;53.496;10.214;2024-03-08T06:14:37;101464.56;;;0.06
79228;BMP280;75303;53.496;10.214;2024-03-08T06:17:03;101464.50;;;0.12
79228;BMP280;75303;53.496;10.214;2024-03-08T06:19:28;101464.31;;;0.14
79228;BMP280;75303;53.496;10.214;2024-03-08T06:21:53;101460.53;;;0.16
79228;BMP280;75303;53.496;10.214;2024-03-08T06:24:18;101467.09;;;0.12
79228;BMP280;75303;53.496;10.214;2024-03-08T06:26:44;101467.53;;;0.09
79228;BMP280;75303;53.496;10.214;2024-03-08T06:29:09;101461.91;;;0.12
79228;BMP280;75303;53.496;10.214;2024-03-08T06:31:35;101460.31;;;0.18
79228;BMP280;75303;53.496;10.214;2024-03-08T06:34:04;101460.31;;;0.18
79228;BMP280;75303;53.496;10.214;2024-03-08T06:36:32;101451.91;;;0.22
79228;BMP280;75303;53.496;10.214;2024-03-08T06:38:57;101462.88;;;0.24
79228;BMP280;75303;53.496;10.214;2024-03-08T06:41:23;101456.31;;;0.22
79228;BMP280;75303;53.496;10.214;2024-03-08T06:43:48;101455.88;;;0.25
79228;BMP280;75303;53.496;10.214;2024-03-08T06:46:17;101454.88;;;0.26
79228;BMP280;75303;53.496;10.214;2024-03-08T06:48:42;101451.06;;;0.28
79228;BMP280;75303;53.496;10.214;2024-03-08T06:51:07;101453.84;;;0.33
79228;BMP280;75303;53.496;10.214;2024-03-08T06:53:33;101450.06;;;0.29
79228;BMP280;75303;53.496;10.214;2024-03-08T06:56:00;101455.84;;;0.31
79228;BMP280;75303;53.496;10.214;2024-03-08T06:58:25;101452.63;;;0.36
79228;BMP280;75303;53.496;10.214;2024-03-08T07:00:51;101457.00;;;0.35
79228;BMP280;75303;53.496;10.214;2024-03-08T07:03:23;101452.41;;;0.37
79228;BMP280;75303;53.496;10.214;2024-03-08T07:05:48;101455.75;;;0.44
79228;BMP280;75303;53.496;10.214;2024-03-08T07:08:13;101450.72;;;0.49
79228;BMP280;75303;53.496;10.214;2024-03-08T07:10:39;101456.28;;;0.53
79228;BMP280;75303;53.496;10.214;2024-03-08T07:13:07;101454.66;;;0.58
79228;BMP280;75303;53.496;10.214;2024-03-08T07:15:32;101450.06;;;0.60
79228;BMP280;75303;53.496;10.214;2024-03-08T07:17:57;101456.41;;;0.64
79228;BMP280;75303;53.496;10.214;2024-03-08T07:20:24;101451.19;;;0.71
79228;BMP280;75303;53.496;10.214;2024-03-08T07:22:50;101448.16;;;0.74
79228;BMP280;75303;53.496;10.214;2024-03-08T07:25:18;101454.88;;;0.81
79228;BMP280;75303;53.496;10.214;2024-03-08T07:27:51;101461.81;;;0.87
79228;BMP280;75303;53.496;10.214;2024-03-08T07:30:17;101449.56;;;0.94
79228;BMP280;75303;53.496;10.214;2024-03-08T07:33:01;101455.91;;;1.04
79228;BMP280;75303;53.496;10.214;2024-03-08T07:35:28;101451.44;;;1.11
79228;BMP280;75303;53.496;10.214;2024-03-08T07:37:53;101458.72;;;1.21
79228;BMP280;75303;53.496;10.214;2024-03-08T07:40:20;101449.44;;;1.31
79228;BMP280;75303;53.496;10.214;2024-03-08T07:42:45;101449.75;;;1.41
79228;BMP280;75303;53.496;10.214;2024-03-08T07:45:10;101450.09;;;1.45
79228;BMP280;75303;53.496;10.214;2024-03-08T07:47:38;101445.53;;;1.58
79228;BMP280;75303;53.496;10.214;2024-03-08T07:50:03;101449.00;;;1.70
79228;BMP280;75303;53.496;10.214;2024-03-08T07:52:28;101456.28;;;1.79
79228;BMP280;75303;53.496;10.214;2024-03-08T07:54:54;101454.34;;;1.93
79228;BMP280;75303;53.496;10.214;2024-03-08T07:57:19;101450.97;;;2.04
79228;BMP280;75303;53.496;10.214;2024-03-08T07:59:45;101453.50;;;2.10
79228;BMP280;75303;53.496;10.214;2024-03-08T08:02:10;101444.03;;;2.16
79228;BMP280;75303;53.496;10.214;2024-03-08T08:04:35;101444.28;;;2.26
79228;BMP280;75303;53.496;10.214;2024-03-08T08:07:01;101447.63;;;2.44
79228;BMP280;75303;53.496;10.214;2024-03-08T08:09:26;101451.38;;;2.48
79228;BMP280;75303;53.496;10.214;2024-03-08T08:11:59;101444.50;;;2.65
79228;BMP280;75303;53.496;10.214;2024-03-08T08:14:24;101432.63;;;2.80
79228;BMP280;75303;53.496;10.214;2024-03-08T08:16:49;101434.00;;;2.94
79228;BMP280;75303;53.496;10.214;2024-03-08T08:19:17;101433.78;;;3.07
79228;BMP280;75303;53.496;10.214;2024-03-08T08:21:43;101424.59;;;3.04
79228;BMP280;75303;53.496;10.214;2024-03-08T08:24:08;101434.91;;;3.11
79228;BMP280;75303;53.496;10.214;2024-03-08T08:26:33;101435.69;;;3.34
79228;BMP280;75303;53.496;10.214;2024-03-08T08:28:59;101437.25;;;3.58
79228;BMP280;75303;53.496;10.214;2024-03-08T08:31:24;101442.84;;;3.78
79228;BMP280;75303;53.496;10.214;2024-03-08T08:33:50;101436.53;;;3.74
79228;BMP280;75303;53.496;10.214;2024-03-08T08:36:15;101435.72;;;3.85
79228;BMP280;75303;53.496;10.214;2024-03-08T08:38:40;101440.28;;;4.06
79228;BMP280;75303;53.496;10.214;2024-03-08T08:41:09;101430.03;;;4.16
79228;BMP280;75303;53.496;10.214;2024-03-08T08:43:34;101428.97;;;4.00
79228;BMP280;75303;53.496;10.214;2024-03-08T08:45:59;101430.78;;;4.28
79228;BMP280;75303;53.496;10.214;2024-03-08T08:48:26;101430.34;;;4.47
79228;BMP280;75303;53.496;10.214;2024-03-08T08:50:53;101426.47;;;4.66
79228;BMP280;75303;53.496;10.214;2024-03-08T08:53:18;101423.22;;;4.59
79228;BMP280;75303;53.496;10.214;2024-03-08T08:55:43;101422.66;;;4.57
79228;BMP280;75303;53.496;10.214;2024-03-08T08:58:10;101413.59;;;4.59
79228;BMP280;75303;53.496;10.214;2024-03-08T09:00:36;101419.81;;;4.91
79228;BMP280;75303;53.496;10.214;2024-03-08T09:03:02;101409.28;;;4.86
79228;BMP280;75303;53.496;10.214;2024-03-08T09:05:27;101410.69;;;4.94
79228;BMP280;75303;53.496;10.214;2024-03-08T09:07:52;101403.47;;;5.17
79228;BMP280;75303;53.496;10.214;2024-03-08T09:10:18;101409.66;;;5.11
79228;BMP280;75303;53.496;10.214;2024-03-08T09:12:44;101410.50;;;5.33
79228;BMP280;75303;53.496;10.214;2024-03-08T09:15:09;101395.13;;;5.20
79228;BMP280;75303;53.496;10.214;2024-03-08T09:17:36;101399.13;;;5.44
79228;BMP280;75303;53.496;10.214;2024-03-08T09:20:05;101397.25;;;5.61
79228;BMP280;75303;53.496;10.214;2024-03-08T09:22:31;101389.16;;;5.62
79228;BMP280;75303;53.496;10.214;2024-03-08T09:24:57;101385.38;;;5.75
79228;BMP280;75303;53.496;10.214;2024-03-08T09:27:22;101386.47;;;6.00
79228;BMP280;75303;53.496;10.214;2024-03-08T09:29:47;101386.72;;;5.99
79228;BMP280;75303;53.496;10.214;2024-03-08T09:32:13;101377.84;;;6.00
79228;BMP280;75303;53.496;10.214;2024-03-08T09:34:38;101377.97;;;6.14
79228;BMP280;75303;53.496;10.214;2024-03-08T09:37:03;101366.06;;;6.28
79228;BMP280;75303;53.496;10.214;2024-03-08T09:39:29;101362.44;;;6.34
79228;BMP280;75303;53.496;10.214;2024-03-08T09:41:54;101358.81;;;6.40
79228;BMP280;75303;53.496;10.214;2024-03-08T09:44:20;101361.81;;;6.54
79228;BMP280;75303;53.496;10.214;2024-03-08T09:46:46;101346.91;;;6.54
79228;BMP280;75303;53.496;10.214;2024-03-08T09:49:16;101357.41;;;6.59
79228;BMP280;75303;53.496;10.214;2024-03-08T09:51:41;101346.00;;;6.75
79228;BMP280;75303;53.496;10.214;2024-03-08T09:54:07;101345.44;;;6.68
79228;BMP280;75303;53.496;10.214;2024-03-08T09:56:34;101349.44;;;6.44
79228;BMP280;75303;53.496;10.214;2024-03-08T09:59:00;101335.53;;;6.75
79228;BMP280;75303;53.496;10.214;2024-03-08T10:01:44;101343.41;;;6.80
79228;BMP280;75303;53.496;10.214;2024-03-08T10:04:09;101334.72;;;6.75
79228;BMP280;75303;53.496;10.214;2024-03-08T10:06:35;101336.09;;;6.82
79228;BMP280;75303;53.496;10.214;2024-03-08T10:09:01;101332.25;;;6.99
79228;BMP280;75303;53.496;10.214;2024-03-08T10:11:26;101323.84;;;6.97
79228;BMP280;75303;53.496;10.214;2024-03-08T10:13:52;101324.09;;;6.91
79228;BMP280;75303;53.496;10.214;2024-03-08T10:16:17;101320.00;;;7.15
79228;BMP280;75303;53.496;10.214;2024-03-08T10:18:45;101325.09;;;7.31
79228;BMP280;75303;53.496;10.214;2024-03-08T10:21:11;101311.59;;;7.08
79228;BMP280;75303;53.496;10.214;2024-03-08T10:23:40;101305.22;;;6.89
79228;BMP280;75303;53.496;10.214;2024-03-08T10:26:13;101300.13;;;7.19
79228;BMP280;75303;53.496;10.214;2024-03-08T10:28:40;101304.53;;;7.13
79228;BMP280;75303;53.496;10.214;2024-03-08T10:31:06;101296.78;;;7.38
79228;BMP280;75303;53.496;10.214;2024-03-08T10:33:32;101291.63;;;6.97
79228;BMP280;75303;53.496;10.214;2024-03-08T10:35:57;101287.53;;;7.21
79228;BMP280;75303;53.496;10.214;2024-03-08T10:38:22;101287.06;;;7.34
79228;BMP280;75303;53.496;10.214;2024-03-08T10:40:49;101285.03;;;7.61
79228;BMP280;75303;53.496;10.214;2024-03-08T10:43:23;101282.47;;;7.95
79228;BMP280;75303;53.496;10.214;2024-03-08T10:45:54;101269.63;;;8.24
79228;BMP280;75303;53.496;10.214;2024-03-08T10:48:28;101274.63;;;8.45
79228;BMP280;75303;53.496;10.214;2024-03-08T10:50:59;101269.06;;;8.02
79228;BMP280;75303;53.496;10.214;2024-03-08T10:53:26;101252.00;;;7.69
79228;BMP280;75303;53.496;10.214;2024-03-08T10:55:53;101256.78;;;8.17
79228;BMP280;75303;53.496;10.214;2024-03-08T10:58:20;101263.56;;;7.88
79228;BMP280;75303;53.496;10.214;2024-03-08T11:00:46;101256.25;;;8.40
79228;BMP280;75303;53.496;10.214;2024-03-08T11:06:08;101246.19;;;8.67
79228;BMP280;75303;53.496;10.214;2024-03-08T11:08:36;101249.22;;;9.04
79228;BMP280;75303;53.496;10.214;2024-03-08T11:11:03;101244.00;;;8.99
79228;BMP280;75303;53.496;10.214;2024-03-08T11:13:37;101238.84;;;9.32
79228;BMP280;75303;53.496;10.214;2024-03-08T11:16:07;101229.50;;;9.01
79228;BMP280;75303;53.496;10.214;2024-03-08T11:18:35;101221.34;;;9.56
79228;BMP280;75303;53.496;10.214;2024-03-08T11:21:09;101222.00;;;9.76
79228;BMP280;75303;53.496;10.214;2024-03-08T11:23:38;101227.72;;;9.83
79228;BMP280;75303;53.496;10.214;2024-03-08T11:26:20;101222.34;;;9.65
79228;BMP280;75303;53.496;10.214;2024-03-08T11:28:46;101219.69;;;10.03
79228;BMP280;75303;53.496;10.214;2024-03-08T11:33:39;101199.47;;;10.74
79228;BMP280;75303;53.496;10.214;2024-03-08T11:36:21;101202.28;;;11.42
79228;BMP280;75303;53.496;10.214;2024-03-08T11:38:48;101193.91;;;10.98
79228;BMP280;75303;53.496;10.214;2024-03-08T11:41:19;101200.22;;;11.76
79228;BMP280;75303;53.496;10.214;2024-03-08T11:43:45;101204.16;;;13.44
79228;BMP280;75303;53.496;10.214;2024-03-08T11:46:11;101201.00;;;13.99
79228;BMP280;75303;53.496;10.214;2024-03-08T11:48:40;101214.53;;;15.78
79228;BMP280;75303;53.496;10.214;2024-03-08T11:51:09;101185.84;;;14.91
79228;BMP280;75303;53.496;10.214;2024-03-08T11:53:36;101189.06;;;14.32
79228;BMP280;75303;53.496;10.214;2024-03-08T11:56:07;101215.44;;;16.16
79228;BMP280;75303;53.496;10.214;2024-03-08T11:58:32;101239.53;;;19.25
79228;BMP280;75303;53.496;10.214;2024-03-08T12:01:24;101200.56;;;19.24
79228;BMP280;75303;53.496;10.214;2024-03-08T12:03:58;101199.28;;;18.26
79228;BMP280;75303;53.496;10.214;2024-03-08T12:06:25;101193.00;;;19.14
79228;BMP280;75303;53.496;10.214;2024-03-08T12:08:51;101177.22;;;18.17
79228;BMP280;75303;53.496;10.214;2024-03-08T12:11:22;101219.13;;;20.85
79228;BMP280;75303;53.496;10.214;2024-03-08T12:13:48;101261.22;;;23.88
79228;BMP280;75303;53.496;10.214;2024-03-08T12:16:17;101245.69;;;21.92
79228;BMP280;75303;53.496;10.214;2024-03-08T12:18:44;101300.53;;;22.93
79228;BMP280;75303;53.496;10.214;2024-03-08T12:21:11;101261.66;;;26.55
79228;BMP280;75303;53.496;10.214;2024-03-08T12:23:37;101243.84;;;24.91
79228;BMP280;75303;53.496;10.214;2024-03-08T12:28:44;101113.75;;;14.42
79228;BMP280;75303;53.496;10.214;2024-03-08T12:31:12;101104.13;;;13.63
79228;BMP280;75303;53.496;10.214;2024-03-08T12:33:47;101112.16;;;12.52
79228;BMP280;75303;53.496;10.214;2024-03-08T12:36:15;101123.03;;;13.13
79228;BMP280;75303;53.496;10.214;2024-03-08T12:38:43;101127.09;;;14.67
79228;BMP280;75303;53.496;10.214;2024-03-08T12:41:08;101100.94;;;15.25
79228;BMP280;75303;53.496;10.214;2024-03-08T12:43:34;101109.19;;;15.06
79228;BMP280;75303;53.496;10.214;2024-03-08T12:45:59;101120.44;;;18.88
79228;BMP280;75303;53.496;10.214;2024-03-08T12:48:25;101146.75;;;21.91
79228;BMP280;75303;53.496;10.214;2024-03-08T12:50:50;101278.31;;;27.02
79228;BMP280;75303;53.496;10.214;2024-03-08T12:53:17;101240.31;;;26.19
79228;BMP280;75303;53.496;10.214;2024-03-08T12:55:42;101175.22;;;25.49
79228;BMP280;75303;53.496;10.214;2024-03-08T12:58:07;101090.94;;;21.21
79228;BMP280;75303;53.496;10.214;2024-03-08T13:00:34;101094.16;;;19.42
79228;BMP280;75303;53.496;10.214;2024-03-08T13:03:02;101164.22;;;22.71
79228;BMP280;75303;53.496;10.214;2024-03-08T13:05:27;101284.88;;;32.55
79228;BMP280;75303;53.496;10.214;2024-03-08T13:07:53;101292.91;;;37.47
79228;BMP280;75303;53.496;10.214;2024-03-08T13:10:20;101326.97;;;38.94
79228;BMP280;75303;53.496;10.214;2024-03-08T13:12:45;101321.72;;;40.33
79228;BMP280;75303;53.496;10.214;2024-03-08T13:15:11;101298.97;;;37.24
79228;BMP280;75303;53.496;10.214;2024-03-08T13:17:41;101296.97;;;41.07
79228;BMP280;75303;53.496;10.214;2024-03-08T13:20:08;101321.06;;;39.34
79228;BMP280;75303;53.496;10.214;2024-03-08T13:22:35;101310.59;;;41.30
79228;BMP280;75303;53.496;10.214;2024-03-08T13:25:00;101303.81;;;39.01
79228;BMP280;75303;53.496;10.214;2024-03-08T13:27:27;101318.78;;;39.84
79228;BMP280;75303;53.496;10.214;2024-03-08T13:29:53;101286.78;;;37.70
79228;BMP280;75303;53.496;10.214;2024-03-08T13:32:18;101257.09;;;38.18
79228;BMP280;75303;53.496;10.214;2024-03-08T13:34:46;101325.72;;;38.22
79228;BMP280;75303;53.496;10.214;2024-03-08T13:37:16;101258.97;;;40.05
79228;BMP280;75303;53.496;10.214;2024-03-08T13:39:42;101213.09;;;40.36
79228;BMP280;75303;53.496;10.214;2024-03-08T13:42:11;101236.91;;;41.27
79228;BMP280;75303;53.496;10.214;2024-03-08T13:44:44;101264.28;;;40.37
79228;BMP280;75303;53.496;10.214;2024-03-08T13:47:10;101258.63;;;41.15
79228;BMP280;75303;53.496;10.214;2024-03-08T13:49:37;101187.78;;;37.79
79228;BMP280;75303;53.496;10.214;2024-03-08T13:52:02;101190.94;;;34.84
79228;BMP280;75303;53.496;10.214;2024-03-08T13:54:29;101173.19;;;29.75
79228;BMP280;75303;53.496;10.214;2024-03-08T13:56:56;100976.09;;;24.80